createdAt,value
2023-05-09T00:06:56.080Z,60
2023-05-09T00:17:04.758Z,60
2023-05-09T00:27:06.485Z,60
2023-05-09T00:37:20.809Z,60
2023-05-09T00:47:19.510Z,59
2023-05-09T00:57:28.302Z,58
2023-05-09T01:07:38.451Z,57
2023-05-09T01:17:47.932Z,55
2023-05-09T01:27:56.840Z,53
2023-05-09T01:38:05.657Z,56
2023-05-09T01:48:14.277Z,58
2023-05-09T01:58:23.061Z,59
2023-05-09T02:08:32.968Z,59
2023-05-09T02:18:33.011Z,60
2023-05-09T02:28:42.836Z,60
2023-05-09T02:38:51.580Z,60
2023-05-09T02:49:00.234Z,61
2023-05-09T02:59:08.546Z,61
2023-05-09T03:09:17.499Z,60
2023-05-09T03:19:26.179Z,60
2023-05-09T03:29:36.130Z,59
2023-05-09T03:39:44.926Z,60
2023-05-09T03:49:53.679Z,61
2023-05-09T04:00:03.546Z,62
2023-05-09T04:10:03.623Z,60
2023-05-09T04:20:02.565Z,59
2023-05-09T04:30:11.548Z,59
2023-05-09T04:40:20.530Z,59
2023-05-09T04:50:28.775Z,59
2023-05-09T05:00:37.426Z,59
2023-05-09T05:10:46.172Z,58
2023-05-09T05:20:56.073Z,58
2023-05-09T05:31:05.535Z,58
2023-05-09T05:41:14.139Z,58
2023-05-09T05:51:22.837Z,58
2023-05-09T06:01:32.596Z,59
2023-05-09T06:11:41.201Z,58
2023-05-09T06:21:49.889Z,57
2023-05-09T06:31:58.749Z,57
2023-05-09T06:42:07.489Z,56
2023-05-09T06:52:16.212Z,55
2023-05-09T07:02:25.123Z,50
2023-05-09T07:12:33.656Z,47
2023-05-09T07:22:42.426Z,45
2023-05-09T07:32:51.083Z,45
2023-05-09T07:42:59.655Z,46
2023-05-09T07:53:08.433Z,44
2023-05-09T08:03:17.396Z,41
2023-05-09T08:13:26.030Z,39
2023-05-09T08:23:34.757Z,38
2023-05-09T08:33:43.048Z,37
2023-05-09T08:43:51.789Z,40
2023-05-09T08:54:00.582Z,45
2023-05-09T09:04:09.502Z,49
2023-05-09T09:14:18.172Z,52
2023-05-09T09:24:26.948Z,54
2023-05-09T09:34:35.660Z,53
2023-05-09T09:44:44.539Z,52
2023-05-09T09:54:53.395Z,53
2023-05-09T10:05:02.040Z,54
2023-05-09T10:15:10.760Z,54
2023-05-09T10:25:19.514Z,51
2023-05-09T10:35:28.131Z,52
2023-05-09T10:45:36.932Z,54
2023-05-09T10:55:46.473Z,55
2023-05-09T11:05:55.745Z,55
2023-05-09T11:16:04.920Z,56
2023-05-09T11:26:14.341Z,56
2023-05-09T11:36:24.341Z,58
2023-05-09T11:46:34.202Z,57
2023-05-09T11:56:43.394Z,53
2023-05-09T12:06:52.775Z,55
2023-05-09T12:16:55.128Z,54
2023-05-09T12:27:04.629Z,51
2023-05-09T12:37:14.400Z,49
2023-05-09T12:47:23.741Z,50
2023-05-09T12:57:32.718Z,48
2023-05-09T13:07:42.053Z,50
2023-05-09T13:17:51.589Z,47
2023-05-09T13:27:52.899Z,49
2023-05-09T13:37:54.667Z,53
2023-05-09T13:47:53.147Z,53
2023-05-09T13:58:02.513Z,57
2023-05-09T14:08:11.944Z,57
2023-05-09T14:18:21.198Z,55
2023-05-09T14:28:29.978Z,53
2023-05-09T14:38:40.423Z,54
2023-05-09T14:48:40.548Z,55
2023-05-09T14:58:39.941Z,57
2023-05-09T15:08:49.336Z,59
2023-05-09T15:18:49.628Z,60
2023-05-09T15:28:49.965Z,61
2023-05-09T15:38:59.225Z,62
2023-05-09T15:49:08.592Z,63
2023-05-09T15:59:17.991Z,62
2023-05-09T16:09:27.220Z,62
2023-05-09T16:19:39.486Z,63
2023-05-09T16:29:38.754Z,64
2023-05-09T16:39:48.254Z,64
2023-05-09T16:49:57.586Z,65
2023-05-09T17:00:06.470Z,66
2023-05-09T17:10:15.392Z,66
2023-05-09T17:20:23.839Z,67
2023-05-09T17:30:32.419Z,71
2023-05-09T17:40:41.141Z,71
2023-05-09T17:50:49.874Z,73
2023-05-09T18:00:58.488Z,74
2023-05-09T18:11:07.159Z,74
2023-05-09T18:21:15.855Z,75
2023-05-09T18:31:24.666Z,75
2023-05-09T18:41:33.435Z,70
2023-05-09T18:51:42.338Z,69
2023-05-09T19:01:50.952Z,67
2023-05-09T19:12:03.121Z,66
2023-05-09T19:22:17.989Z,64
2023-05-09T19:32:12.681Z,64
2023-05-09T19:42:18.583Z,66
2023-05-09T19:52:24.008Z,68
2023-05-09T20:02:23.678Z,68
2023-05-09T20:12:31.884Z,69
2023-05-09T20:22:39.984Z,70
2023-05-09T20:32:52.850Z,68
2023-05-09T20:42:56.902Z,68
2023-05-09T20:53:06.431Z,66
2023-05-09T21:03:14.573Z,66
2023-05-09T21:13:22.731Z,64
2023-05-09T21:23:30.511Z,64
2023-05-09T21:33:38.445Z,63
2023-05-09T21:43:46.453Z,62
2023-05-09T21:53:55.669Z,62
2023-05-09T22:04:03.801Z,63
2023-05-09T22:14:11.467Z,65
2023-05-09T22:24:19.444Z,65
2023-05-09T22:34:27.520Z,65
2023-05-09T22:44:35.412Z,65
2023-05-09T22:54:43.681Z,64
2023-05-09T23:04:52.415Z,64
2023-05-09T23:15:01.213Z,64
2023-05-09T23:25:09.826Z,64
2023-05-09T23:35:18.491Z,64
2023-05-09T23:45:27.170Z,64
2023-05-09T23:55:36.001Z,64
